createdAt,value
2022-09-06T00:00:34.890Z,101579.97
2022-09-06T00:03:01.370Z,101580.81
2022-09-06T00:05:28.494Z,101578.41
2022-09-06T00:07:57.896Z,101583.13
2022-09-06T00:10:24.182Z,101573.66
2022-09-06T00:12:50.495Z,101580.47
2022-09-06T00:15:16.978Z,101574.91
2022-09-06T00:17:45.074Z,101576.78
2022-09-06T00:20:11.548Z,101577.59
2022-09-06T00:22:38.026Z,101574.31
2022-09-06T00:25:05.731Z,101577.78
2022-09-06T00:27:32.379Z,101575.53
2022-09-06T00:29:58.708Z,101570.38
2022-09-06T00:32:25.129Z,101572.63
2022-09-06T00:34:51.729Z,101565.41
2022-09-06T00:37:18.046Z,101551.84
2022-09-06T00:39:44.660Z,101545.22
2022-09-06T00:42:12.037Z,101538.22
2022-09-06T00:44:38.681Z,101539.41
2022-09-06T00:47:06.561Z,101532.84
2022-09-06T00:49:35.590Z,101530.16
2022-09-06T00:52:03.850Z,101538.81
2022-09-06T00:54:30.665Z,101540.88
2022-09-06T00:56:57.920Z,101545.44
2022-09-06T00:59:25.106Z,101570.78
2022-09-06T01:01:51.596Z,101575.97
2022-09-06T01:04:18.175Z,101595.50
2022-09-06T01:07:06.095Z,101587.88
2022-09-06T01:09:39.909Z,101591.81
2022-09-06T01:12:06.206Z,101597.16
2022-09-06T01:15:06.070Z,101607.47
2022-09-06T01:17:41.199Z,101616.75
2022-09-06T01:20:16.655Z,101620.47
2022-09-06T01:23:04.547Z,101622.31
2022-09-06T01:25:45.859Z,101619.66
2022-09-06T01:28:24.399Z,101617.59
2022-09-06T01:30:53.552Z,101620.66
2022-09-06T01:33:25.726Z,101626.66
2022-09-06T01:36:03.135Z,101642.00
2022-09-06T01:38:29.691Z,101634.16
2022-09-06T01:40:56.022Z,101635.59
2022-09-06T01:43:26.040Z,101636.38
2022-09-06T01:46:13.818Z,101642.72
2022-09-06T01:49:00.431Z,101629.78
2022-09-06T01:51:35.209Z,101627.94
2022-09-06T01:54:13.362Z,101623.84
2022-09-06T01:56:51.865Z,101622.41
2022-09-06T01:59:36.274Z,101604.31
2022-09-06T02:02:09.338Z,101593.03
2022-09-06T02:04:35.584Z,101593.81
2022-09-06T02:07:05.854Z,101600.56
2022-09-06T02:09:36.008Z,101591.94
2022-09-06T02:12:04.210Z,101582.72
2022-09-06T02:14:35.970Z,101566.50
2022-09-06T02:17:04.449Z,101541.03
2022-09-06T02:19:34.946Z,101552.53
2022-09-06T02:22:03.386Z,101549.84
2022-09-06T02:24:32.206Z,101540.41
2022-09-06T02:26:58.578Z,101539.19
2022-09-06T02:29:25.066Z,101532.81
2022-09-06T02:31:58.727Z,101526.88
2022-09-06T02:34:25.225Z,101505.09
2022-09-06T02:36:51.681Z,101507.75
2022-09-06T02:39:17.963Z,101492.97
2022-09-06T02:41:45.374Z,101466.25
2022-09-06T02:44:11.627Z,101439.56
2022-09-06T02:46:37.884Z,101418.22
2022-09-06T02:49:04.359Z,101397.72
2022-09-06T02:51:31.000Z,101390.53
2022-09-06T02:53:57.298Z,101368.75
2022-09-06T02:56:23.705Z,101359.50
2022-09-06T02:58:49.959Z,101355.59
2022-09-06T03:01:16.373Z,101352.72
2022-09-06T03:03:42.698Z,101359.06
2022-09-06T03:06:09.011Z,101364.59
2022-09-06T03:08:36.428Z,101374.88
2022-09-06T03:11:02.812Z,101383.03
2022-09-06T03:13:29.122Z,101394.91
2022-09-06T03:15:56.909Z,101397.56
2022-09-06T03:18:24.243Z,101407.56
2022-09-06T03:20:50.793Z,101434.59
2022-09-06T03:23:20.763Z,101431.66
2022-09-06T03:25:47.294Z,101426.13
2022-09-06T03:28:13.549Z,101413.25
2022-09-06T03:30:40.558Z,101424.97
2022-09-06T03:33:07.438Z,101422.31
2022-09-06T03:35:33.725Z,101422.13
2022-09-06T03:38:00.011Z,101425.84
2022-09-06T03:40:26.373Z,101431.78
2022-09-06T03:42:52.648Z,101434.44
2022-09-06T03:45:19.017Z,101437.91
2022-09-06T03:47:45.482Z,101436.69
2022-09-06T03:50:11.734Z,101443.47
2022-09-06T03:52:38.055Z,101444.69
2022-09-06T03:55:04.656Z,101452.06
2022-09-06T03:57:30.976Z,101461.91
2022-09-06T03:59:57.287Z,101461.47
2022-09-06T04:02:23.648Z,101465.97
2022-09-06T04:04:49.983Z,101479.91
2022-09-06T04:07:16.251Z,101478.25
2022-09-06T04:09:42.735Z,101468.59
2022-09-06T04:12:09.026Z,101464.53
2022-09-06T04:14:35.325Z,101463.53
2022-09-06T04:17:01.649Z,101460.63
2022-09-06T04:19:28.011Z,101462.47
2022-09-06T04:21:54.291Z,101467.00
2022-09-06T04:24:20.609Z,101471.72
2022-09-06T04:26:46.870Z,101468.22
2022-09-06T04:29:13.138Z,101473.75
2022-09-06T04:31:39.652Z,101460.59
2022-09-06T04:34:06.138Z,101457.94
2022-09-06T04:36:32.457Z,101456.47
2022-09-06T04:38:58.800Z,101463.00
2022-09-06T04:41:25.111Z,101459.69
2022-09-06T04:43:51.433Z,101474.84
2022-09-06T04:46:20.074Z,101476.69
2022-09-06T04:48:46.971Z,101472.63
2022-09-06T04:51:13.221Z,101467.94
2022-09-06T04:53:39.684Z,101468.75
2022-09-06T04:56:06.293Z,101464.41
2022-09-06T04:58:32.590Z,101470.78
2022-09-06T05:00:59.019Z,101472.81
2022-09-06T05:03:25.390Z,101476.69
2022-09-06T05:05:51.731Z,101476.69
2022-09-06T05:08:18.756Z,101478.78
2022-09-06T05:10:45.053Z,101482.69
2022-09-06T05:13:11.318Z,101484.31
2022-09-06T05:15:37.992Z,101489.47
2022-09-06T05:18:04.858Z,101492.13
2022-09-06T05:20:31.435Z,101492.09
2022-09-06T05:22:57.764Z,101489.63
2022-09-06T05:25:24.087Z,101493.06
2022-09-06T05:27:50.350Z,101496.97
2022-09-06T05:30:18.084Z,101498.22
2022-09-06T05:32:44.435Z,101502.91
2022-09-06T05:35:10.745Z,101508.81
2022-09-06T05:37:37.222Z,101509.84
2022-09-06T05:40:03.680Z,101521.50
2022-09-06T05:42:30.007Z,101528.50
2022-09-06T05:44:56.511Z,101534.44
2022-09-06T05:47:22.785Z,101531.97
2022-09-06T05:49:49.089Z,101539.00
2022-09-06T05:52:17.358Z,101538.41
2022-09-06T05:54:43.682Z,101541.50
2022-09-06T05:57:09.944Z,101549.13
2022-09-06T05:59:36.236Z,101548.50
2022-09-06T06:02:07.054Z,101554.06
2022-09-06T06:04:33.739Z,101551.22
2022-09-06T06:07:00.288Z,101551.56
2022-09-06T06:09:26.571Z,101555.66
2022-09-06T06:11:52.914Z,101557.25
2022-09-06T06:14:19.267Z,101569.28
2022-09-06T06:16:45.584Z,101559.38
2022-09-06T06:19:12.286Z,101549.94
2022-09-06T06:21:39.026Z,101565.97
2022-09-06T06:24:05.626Z,101557.16
2022-09-06T06:26:33.375Z,101567.75
2022-09-06T06:29:02.190Z,101560.97
2022-09-06T06:31:29.487Z,101560.78
2022-09-06T06:33:55.932Z,101558.69
2022-09-06T06:36:23.458Z,101552.81
2022-09-06T06:38:51.178Z,101560.38
2022-09-06T06:41:18.561Z,101559.56
2022-09-06T06:43:45.108Z,101565.88
2022-09-06T06:46:12.640Z,101560.16
2022-09-06T06:48:43.248Z,101550.59
2022-09-06T06:51:14.124Z,101552.84
2022-09-06T06:53:40.479Z,101553.28
2022-09-06T06:56:25.551Z,101547.97
2022-09-06T06:58:53.244Z,101544.69
2022-09-06T07:01:20.631Z,101541.41
2022-09-06T07:03:47.495Z,101547.59
2022-09-06T07:06:13.891Z,101531.81
2022-09-06T07:08:40.869Z,101531.19
2022-09-06T07:11:07.875Z,101522.66
2022-09-06T07:13:34.286Z,101523.91
2022-09-06T07:16:11.858Z,101522.53
2022-09-06T07:18:41.969Z,101516.41
2022-09-06T07:24:06.175Z,101511.13
2022-09-06T07:26:33.438Z,101507.06
2022-09-06T07:29:00.713Z,101502.78
2022-09-06T07:34:14.689Z,101513.47
2022-09-06T07:36:40.963Z,101514.72
2022-09-06T07:39:07.396Z,101515.38
2022-09-06T07:41:33.898Z,101511.50
2022-09-06T07:44:00.182Z,101517.25
2022-09-06T07:46:26.516Z,101516.22
2022-09-06T07:48:53.022Z,101518.44
2022-09-06T07:51:20.548Z,101524.25
2022-09-06T07:53:52.272Z,101517.31
2022-09-06T07:56:19.966Z,101512.22
2022-09-06T07:58:46.266Z,101517.94
2022-09-06T08:01:18.740Z,101523.78
2022-09-06T08:03:46.255Z,101512.47
2022-09-06T08:06:12.627Z,101506.53
2022-09-06T08:11:26.632Z,101501.22
2022-09-06T08:13:54.736Z,101502.03
2022-09-06T08:16:21.522Z,101495.06
2022-09-06T08:18:52.149Z,101501.25
2022-09-06T08:21:18.995Z,101501.84
2022-09-06T08:23:49.595Z,101507.81
2022-09-06T08:26:16.783Z,101500.78
2022-09-06T08:28:43.148Z,101501.19
2022-09-06T08:31:10.515Z,101499.44
2022-09-06T08:33:37.597Z,101497.94
2022-09-06T08:36:04.419Z,101495.03
2022-09-06T08:38:30.776Z,101502.69
2022-09-06T08:41:07.756Z,101500.13
2022-09-06T08:43:34.563Z,101494.25
2022-09-06T08:46:01.405Z,101493.09
2022-09-06T08:48:30.327Z,101497.53
2022-09-06T08:51:29.107Z,101506.25
2022-09-06T08:53:59.810Z,101491.34
2022-09-06T08:56:34.559Z,101494.19
2022-09-06T08:59:11.688Z,101494.75
2022-09-06T09:01:45.421Z,101494.16
2022-09-06T09:04:14.865Z,101500.00
2022-09-06T09:06:41.154Z,101488.16
2022-09-06T09:09:13.699Z,101479.13
2022-09-06T09:11:43.378Z,101468.41
2022-09-06T09:14:20.356Z,101469.25
2022-09-06T09:16:50.521Z,101467.53
2022-09-06T09:19:16.868Z,101460.53
2022-09-06T09:21:43.266Z,101459.59
2022-09-06T09:24:10.961Z,101457.56
2022-09-06T09:26:40.000Z,101455.56
2022-09-06T09:29:08.009Z,101455.78
2022-09-06T09:31:36.149Z,101459.53
2022-09-06T09:34:04.668Z,101456.13
2022-09-06T09:36:31.858Z,101450.81
2022-09-06T09:38:58.871Z,101447.44
2022-09-06T09:41:30.262Z,101441.09
2022-09-06T09:44:05.198Z,101435.00
2022-09-06T09:46:33.274Z,101436.63
2022-09-06T09:49:05.401Z,101444.16
2022-09-06T09:51:33.368Z,101446.13
2022-09-06T09:54:04.093Z,101452.00
2022-09-06T09:56:37.478Z,101455.41
2022-09-06T09:59:08.291Z,101450.66
2022-09-06T10:01:34.671Z,101447.66
2022-09-06T10:09:37.324Z,101442.22
2022-09-06T10:12:03.709Z,101435.78
2022-09-06T10:14:39.679Z,101444.22
2022-09-06T10:17:06.191Z,101440.50
2022-09-06T10:19:40.751Z,101441.03
2022-09-06T10:22:11.802Z,101438.41
2022-09-06T10:24:53.240Z,101444.84
2022-09-06T10:27:23.409Z,101447.00
2022-09-06T10:30:00.784Z,101446.72
2022-09-06T10:32:30.813Z,101445.75
2022-09-06T10:35:00.570Z,101440.97
2022-09-06T10:37:39.160Z,101436.59
2022-09-06T10:40:07.782Z,101437.91
2022-09-06T10:42:46.414Z,101431.44
2022-09-06T10:45:31.233Z,101426.47
2022-09-06T10:48:13.900Z,101425.13
2022-09-06T10:50:50.122Z,101428.13
2022-09-06T10:53:25.017Z,101423.50
2022-09-06T10:56:01.735Z,101422.97
2022-09-06T11:01:26.166Z,101422.94
2022-09-06T11:03:58.273Z,101430.94
2022-09-06T11:06:31.534Z,101436.28
2022-09-06T11:09:02.524Z,101437.19
2022-09-06T11:11:35.536Z,101440.13
2022-09-06T11:14:05.750Z,101441.44
2022-09-06T11:16:39.513Z,101437.16
2022-09-06T11:19:17.609Z,101438.00
2022-09-06T11:22:12.646Z,101434.28
2022-09-06T11:24:53.281Z,101438.03
2022-09-06T11:27:26.220Z,101437.03
2022-09-06T11:29:56.457Z,101450.25
2022-09-06T11:32:28.451Z,101445.19
2022-09-06T11:34:56.694Z,101449.53
2022-09-06T11:37:27.682Z,101458.19
2022-09-06T11:42:52.955Z,101460.94
2022-09-06T11:45:37.896Z,101450.09
2022-09-06T11:48:36.646Z,101456.31
2022-09-06T11:51:06.578Z,101458.22
2022-09-06T11:53:55.621Z,101456.84
2022-09-06T11:56:32.923Z,101451.72
2022-09-06T11:59:21.367Z,101452.75
2022-09-06T12:01:56.459Z,101456.53
2022-09-06T12:04:23.318Z,101461.72
2022-09-06T12:07:09.920Z,101448.91
2022-09-06T12:09:40.278Z,101440.97
2022-09-06T12:12:07.751Z,101442.72
2022-09-06T12:14:36.483Z,101441.63
2022-09-06T12:17:04.795Z,101444.59
2022-09-06T12:19:44.332Z,101443.44
2022-09-06T12:22:41.415Z,101439.28
2022-09-06T12:25:18.690Z,101437.97
2022-09-06T12:27:56.204Z,101439.75
2022-09-06T12:30:39.218Z,101433.72
2022-09-06T12:33:07.524Z,101428.03
2022-09-06T12:38:25.446Z,101425.84
2022-09-06T12:40:56.344Z,101417.13
2022-09-06T12:43:22.649Z,101417.75
2022-09-06T12:45:51.384Z,101411.25
2022-09-06T12:48:27.022Z,101406.13
2022-09-06T12:51:02.650Z,101405.72
2022-09-06T12:53:31.415Z,101406.50
2022-09-06T12:56:05.056Z,101408.31
2022-09-06T12:58:31.534Z,101403.16
2022-09-06T13:01:02.152Z,101407.19
2022-09-06T13:03:31.403Z,101406.78
2022-09-06T13:05:59.906Z,101404.28
2022-09-06T13:08:33.351Z,101409.34
2022-09-06T13:10:59.931Z,101398.94
2022-09-06T13:13:26.761Z,101405.69
2022-09-06T13:15:53.911Z,101396.78
2022-09-06T13:18:20.446Z,101398.59
2022-09-06T13:20:57.511Z,101395.63
2022-09-06T13:23:23.762Z,101392.31
2022-09-06T13:25:51.559Z,101394.44
2022-09-06T13:28:31.774Z,101395.38
2022-09-06T13:31:03.143Z,101396.38
2022-09-06T13:33:29.671Z,101394.50
2022-09-06T13:36:05.454Z,101397.50
2022-09-06T13:38:33.803Z,101385.22
2022-09-06T13:41:16.750Z,101386.59
2022-09-06T13:43:45.332Z,101377.44
2022-09-06T13:46:11.723Z,101383.00
2022-09-06T13:48:39.371Z,101383.56
2022-09-06T13:51:06.882Z,101379.53
2022-09-06T13:53:34.165Z,101376.31
2022-09-06T13:56:00.418Z,101369.22
2022-09-06T13:58:27.728Z,101368.81
2022-09-06T14:00:54.202Z,101366.38
2022-09-06T14:03:22.463Z,101360.63
2022-09-06T14:05:49.106Z,101364.88
2022-09-06T14:08:15.795Z,101353.47
2022-09-06T14:10:42.358Z,101362.56
2022-09-06T14:13:09.255Z,101353.41
2022-09-06T14:15:35.567Z,101359.84
2022-09-06T14:18:02.121Z,101351.72
2022-09-06T14:20:28.588Z,101346.84
2022-09-06T14:22:54.872Z,101350.91
2022-09-06T14:25:21.150Z,101342.00
2022-09-06T14:27:48.584Z,101338.81
2022-09-06T14:30:14.854Z,101332.69
2022-09-06T14:32:41.320Z,101332.19
2022-09-06T14:35:07.947Z,101329.06
2022-09-06T14:37:34.499Z,101329.00
2022-09-06T14:40:00.998Z,101330.53
2022-09-06T14:42:28.554Z,101334.72
2022-09-06T14:44:54.811Z,101339.88
2022-09-06T14:47:21.126Z,101334.19
2022-09-06T14:49:47.563Z,101335.53
2022-09-06T14:52:13.913Z,101332.78
2022-09-06T14:54:40.174Z,101340.97
2022-09-06T14:57:06.676Z,101333.63
2022-09-06T14:59:32.964Z,101332.84
2022-09-06T15:01:59.332Z,101338.84
2022-09-06T15:04:26.577Z,101344.78
2022-09-06T15:06:52.903Z,101339.63
2022-09-06T15:09:19.177Z,101334.06
2022-09-06T15:11:50.562Z,101340.28
2022-09-06T15:14:24.747Z,101343.53
2022-09-06T15:16:55.924Z,101342.81
2022-09-06T15:19:23.040Z,101328.72
2022-09-06T15:21:49.297Z,101327.31
2022-09-06T15:24:15.920Z,101332.00
2022-09-06T15:26:42.657Z,101337.44
2022-09-06T15:29:09.286Z,101329.09
2022-09-06T15:31:36.250Z,101325.25
2022-09-06T15:34:02.850Z,101327.22
2022-09-06T15:36:29.829Z,101334.63
2022-09-06T15:39:01.038Z,101328.09
2022-09-06T15:41:28.979Z,101329.47
2022-09-06T15:43:57.440Z,101317.81
2022-09-06T15:46:44.257Z,101308.31
2022-09-06T15:49:12.369Z,101313.19
2022-09-06T15:51:39.602Z,101300.41
2022-09-06T15:54:06.695Z,101293.66
2022-09-06T15:56:33.039Z,101293.97
2022-09-06T15:58:59.335Z,101287.72
2022-09-06T16:01:26.112Z,101282.31
2022-09-06T16:03:53.696Z,101284.50
2022-09-06T16:08:55.214Z,101279.63
2022-09-06T16:11:21.542Z,101269.06
2022-09-06T16:13:47.875Z,101269.34
2022-09-06T16:16:15.226Z,101272.59
2022-09-06T16:18:42.665Z,101275.31
2022-09-06T16:21:10.159Z,101273.69
2022-09-06T16:23:37.016Z,101278.59
2022-09-06T16:26:04.252Z,101279.41
2022-09-06T16:28:31.557Z,101279.94
2022-09-06T16:31:01.457Z,101278.06
2022-09-06T16:33:28.351Z,101268.06
2022-09-06T16:35:54.620Z,101271.00
2022-09-06T16:38:20.944Z,101273.16
2022-09-06T16:40:47.255Z,101278.28
2022-09-06T16:43:13.602Z,101278.84
2022-09-06T16:45:39.972Z,101282.06
2022-09-06T16:48:07.004Z,101277.69
2022-09-06T16:50:33.609Z,101285.47
2022-09-06T16:53:00.191Z,101279.81
2022-09-06T16:55:26.592Z,101278.41
2022-09-06T16:57:53.029Z,101277.81
2022-09-06T17:00:19.830Z,101278.88
2022-09-06T17:02:47.599Z,101284.22
2022-09-06T17:05:14.483Z,101276.63
2022-09-06T17:07:41.450Z,101284.69
2022-09-06T17:10:07.945Z,101279.53
2022-09-06T17:12:34.229Z,101279.50
2022-09-06T17:15:00.754Z,101280.00
2022-09-06T17:17:27.678Z,101290.00
2022-09-06T17:19:53.957Z,101292.94
2022-09-06T17:22:21.549Z,101295.59
2022-09-06T17:24:47.934Z,101295.28
2022-09-06T17:27:14.470Z,101297.38
2022-09-06T17:29:41.114Z,101287.84
2022-09-06T17:32:10.135Z,101296.13
2022-09-06T17:34:37.611Z,101291.56
2022-09-06T17:37:04.583Z,101295.75
2022-09-06T17:39:31.227Z,101293.31
2022-09-06T17:41:58.716Z,101287.63
2022-09-06T17:44:26.206Z,101290.78
2022-09-06T17:47:11.606Z,101295.06
2022-09-06T17:49:39.338Z,101294.19
2022-09-06T17:52:05.674Z,101292.25
2022-09-06T17:54:32.041Z,101290.81
2022-09-06T17:56:58.893Z,101285.06
2022-09-06T17:59:25.391Z,101290.66
2022-09-06T18:01:52.328Z,101284.66
2022-09-06T18:04:19.502Z,101287.22
2022-09-06T18:06:46.771Z,101280.38
2022-09-06T18:09:15.372Z,101280.84
2022-09-06T18:11:44.446Z,101288.22
2022-09-06T18:14:12.014Z,101290.47
2022-09-06T18:16:39.023Z,101295.06
2022-09-06T18:19:06.617Z,101294.69
2022-09-06T18:21:34.973Z,101293.25
2022-09-06T18:24:01.531Z,101283.69
2022-09-06T18:26:28.017Z,101285.47
2022-09-06T18:28:54.608Z,101289.38
2022-09-06T18:31:22.390Z,101285.31
2022-09-06T18:33:48.960Z,101282.53
2022-09-06T18:36:15.700Z,101281.16
2022-09-06T18:38:45.428Z,101280.25
2022-09-06T18:41:33.221Z,101276.66
2022-09-06T18:44:00.921Z,101273.56
2022-09-06T18:46:27.257Z,101272.16
2022-09-06T18:48:53.742Z,101268.66
2022-09-06T18:51:20.014Z,101264.03
2022-09-06T18:53:46.301Z,101262.38
2022-09-06T18:56:28.411Z,101258.78
2022-09-06T18:58:58.989Z,101260.44
2022-09-06T19:01:29.194Z,101261.72
2022-09-06T19:03:57.499Z,101259.28
2022-09-06T19:06:24.273Z,101264.78
2022-09-06T19:08:53.683Z,101262.47
2022-09-06T19:11:21.669Z,101260.53
2022-09-06T19:13:51.960Z,101254.47
2022-09-06T19:16:18.854Z,101251.38
2022-09-06T19:18:45.377Z,101255.84
2022-09-06T19:21:14.343Z,101258.53
2022-09-06T19:23:44.351Z,101247.66
2022-09-06T19:26:20.577Z,101243.66
2022-09-06T19:28:55.810Z,101228.28
2022-09-06T19:31:23.934Z,101220.09
2022-09-06T19:33:51.314Z,101224.09
2022-09-06T19:36:19.478Z,101215.78
2022-09-06T19:39:03.107Z,101203.09
2022-09-06T19:41:32.177Z,101203.66
2022-09-06T19:43:59.049Z,101196.75
2022-09-06T19:46:26.600Z,101203.16
2022-09-06T19:48:55.993Z,101202.34
2022-09-06T19:51:23.536Z,101191.38
2022-09-06T19:53:57.559Z,101187.84
2022-09-06T19:56:32.657Z,101180.28
2022-09-06T19:59:01.702Z,101181.59
2022-09-06T20:01:31.028Z,101179.69
2022-09-06T20:03:58.624Z,101179.59
2022-09-06T20:06:25.864Z,101164.53
2022-09-06T20:08:53.659Z,101159.75
2022-09-06T20:11:25.676Z,101159.16
2022-09-06T20:13:52.253Z,101155.00
2022-09-06T20:16:20.973Z,101162.78
2022-09-06T20:18:48.374Z,101156.03
2022-09-06T20:21:15.221Z,101158.13
2022-09-06T20:23:41.918Z,101157.78
2022-09-06T20:26:14.973Z,101154.75
2022-09-06T20:28:42.000Z,101168.44
2022-09-06T20:31:11.392Z,101174.16
2022-09-06T20:33:38.105Z,101165.75
2022-09-06T20:36:07.059Z,101162.81
2022-09-06T20:38:39.256Z,101158.41
2022-09-06T20:41:09.544Z,101154.34
2022-09-06T20:43:36.887Z,101142.44
2022-09-06T20:46:06.595Z,101141.28
2022-09-06T20:48:34.689Z,101143.63
2022-09-06T20:51:04.245Z,101133.34
2022-09-06T20:53:34.387Z,101137.84
2022-09-06T20:56:03.442Z,101137.72
2022-09-06T20:58:31.039Z,101127.13
2022-09-06T21:00:59.013Z,101123.03
2022-09-06T21:03:26.152Z,101121.97
2022-09-06T21:05:54.267Z,101110.56
2022-09-06T21:08:20.905Z,101115.22
2022-09-06T21:10:47.387Z,101113.63
2022-09-06T21:13:14.084Z,101111.34
2022-09-06T21:15:41.201Z,101104.25
2022-09-06T21:18:09.300Z,101103.44
2022-09-06T21:20:36.041Z,101097.88
2022-09-06T21:23:03.136Z,101099.06
2022-09-06T21:25:30.215Z,101091.09
2022-09-06T21:27:56.704Z,101103.00
2022-09-06T21:30:23.489Z,101101.03
2022-09-06T21:32:53.483Z,101101.63
2022-09-06T21:35:19.850Z,101114.09
2022-09-06T21:37:46.267Z,101111.06
2022-09-06T21:40:12.694Z,101103.28
2022-09-06T21:42:39.143Z,101088.22
2022-09-06T21:45:06.215Z,101082.03
2022-09-06T21:47:32.559Z,101070.03
2022-09-06T21:49:58.954Z,101069.31
2022-09-06T21:52:25.424Z,101070.38
2022-09-06T21:54:51.759Z,101072.63
2022-09-06T21:57:18.670Z,101065.16
2022-09-06T21:59:45.059Z,101063.28
2022-09-06T22:02:13.500Z,101049.06
2022-09-06T22:04:40.298Z,101041.00
2022-09-06T22:07:06.697Z,101025.16
2022-09-06T22:09:33.053Z,101017.53
2022-09-06T22:11:59.390Z,101012.97
2022-09-06T22:14:25.819Z,101003.56
2022-09-06T22:16:53.415Z,101005.66
2022-09-06T22:19:20.041Z,101002.25
2022-09-06T22:21:46.477Z,101012.09
2022-09-06T22:24:15.486Z,100999.94
2022-09-06T22:26:42.313Z,100988.53
2022-09-06T22:29:11.111Z,100987.38
2022-09-06T22:31:38.092Z,100991.22
2022-09-06T22:34:04.917Z,101000.28
2022-09-06T22:36:32.024Z,100999.84
2022-09-06T22:38:59.027Z,101033.03
2022-09-06T22:41:27.484Z,101061.47
2022-09-06T22:43:54.165Z,101072.41
2022-09-06T22:46:20.642Z,101095.53
2022-09-06T22:48:47.071Z,101120.13
2022-09-06T22:51:13.669Z,101101.72
2022-09-06T22:53:40.132Z,101127.38
2022-09-06T22:56:06.671Z,101112.09
2022-09-06T22:58:34.341Z,101138.63
2022-09-06T23:01:13.026Z,101189.91
2022-09-06T23:03:40.481Z,101197.56
2022-09-06T23:06:07.368Z,101199.94
2022-09-06T23:08:36.567Z,101213.09
2022-09-06T23:11:15.341Z,101241.56
2022-09-06T23:13:45.988Z,101251.69
2022-09-06T23:16:18.407Z,101254.41
2022-09-06T23:18:45.928Z,101242.06
2022-09-06T23:21:14.793Z,101293.00
2022-09-06T23:23:41.690Z,101289.28
2022-09-06T23:26:16.289Z,101271.88
2022-09-06T23:28:43.093Z,101259.94
2022-09-06T23:31:12.184Z,101251.94
2022-09-06T23:33:39.667Z,101247.22
2022-09-06T23:36:08.657Z,101247.22
2022-09-06T23:38:36.816Z,101242.91
2022-09-06T23:41:03.639Z,101226.50
2022-09-06T23:43:30.075Z,101224.19
2022-09-06T23:45:56.540Z,101232.59
2022-09-06T23:48:23.451Z,101219.25
2022-09-06T23:50:50.215Z,101209.59
2022-09-06T23:53:17.951Z,101224.78
2022-09-06T23:55:45.004Z,101234.81
2022-09-06T23:58:12.372Z,101237.47
